createdAt,value
2018-01-30T00:02:15.498Z,20.73
2018-01-30T00:04:43.054Z,19.23
2018-01-30T00:07:11.411Z,17.87
2018-01-30T00:09:39.366Z,20.00
2018-01-30T00:12:07.035Z,17.83
2018-01-30T00:14:34.600Z,17.43
2018-01-30T00:17:02.245Z,20.97
2018-01-30T00:19:29.910Z,17.83
2018-01-30T00:21:57.495Z,17.53
2018-01-30T00:24:25.054Z,16.30
2018-01-30T00:26:52.794Z,16.87
2018-01-30T00:29:20.356Z,16.17
2018-01-30T00:31:50.965Z,17.90
2018-01-30T00:34:18.561Z,16.47
2018-01-30T00:36:46.225Z,19.30
2018-01-30T00:39:15.399Z,17.10
2018-01-30T00:41:42.998Z,15.77
2018-01-30T00:44:12.385Z,18.23
2018-01-30T00:46:40.073Z,16.07
2018-01-30T00:49:10.038Z,15.63
2018-01-30T00:51:38.321Z,15.47
2018-01-30T00:54:06.778Z,15.30
2018-01-30T00:56:34.927Z,13.07
2018-01-30T00:59:03.836Z,14.60
2018-01-30T01:01:32.951Z,15.00
2018-01-30T01:04:03.011Z,14.50
2018-01-30T01:06:31.629Z,16.07
2018-01-30T01:09:00.533Z,14.93
2018-01-30T01:11:28.179Z,14.07
2018-01-30T01:13:55.747Z,16.80
2018-01-30T01:16:24.495Z,13.97
2018-01-30T01:18:52.707Z,15.60
2018-01-30T01:21:21.281Z,13.03
2018-01-30T01:23:48.863Z,15.40
2018-01-30T01:26:16.498Z,13.60
2018-01-30T01:28:44.076Z,13.93
2018-01-30T01:31:11.723Z,14.23
2018-01-30T01:33:41.018Z,12.87
2018-01-30T01:36:08.685Z,13.13
2018-01-30T01:38:36.531Z,14.20
2018-01-30T01:41:04.138Z,13.37
2018-01-30T01:43:31.761Z,13.20
2018-01-30T01:45:59.324Z,13.40
2018-01-30T01:48:26.981Z,13.17
2018-01-30T01:50:55.550Z,13.40
2018-01-30T01:53:23.129Z,13.03
2018-01-30T01:55:51.520Z,11.83
2018-01-30T01:58:20.163Z,13.07
2018-01-30T02:00:48.628Z,12.37
2018-01-30T02:03:16.215Z,11.70
2018-01-30T02:05:43.879Z,14.67
2018-01-30T02:08:11.461Z,11.03
2018-01-30T02:10:39.180Z,10.23
2018-01-30T02:13:07.289Z,12.40
2018-01-30T02:15:34.922Z,13.57
2018-01-30T02:18:02.502Z,12.27
2018-01-30T02:20:30.060Z,11.37
2018-01-30T02:22:57.643Z,10.53
2018-01-30T02:25:27.501Z,11.13
2018-01-30T02:27:55.691Z,11.43
2018-01-30T02:30:23.947Z,11.13
2018-01-30T02:32:51.527Z,11.27
2018-01-30T02:35:19.413Z,11.97
2018-01-30T02:37:48.515Z,12.20
2018-01-30T02:40:16.865Z,10.77
2018-01-30T02:42:45.725Z,9.53
2018-01-30T02:45:13.913Z,9.90
2018-01-30T02:47:43.599Z,9.67
2018-01-30T02:50:11.986Z,10.77
2018-01-30T02:52:41.125Z,11.17
2018-01-30T02:55:11.712Z,11.90
2018-01-30T02:57:42.033Z,9.90
2018-01-30T03:00:11.080Z,9.23
2018-01-30T03:02:40.782Z,9.83
2018-01-30T03:05:09.517Z,10.43
2018-01-30T03:07:38.516Z,8.93
2018-01-30T03:10:07.017Z,9.83
2018-01-30T03:12:35.468Z,10.07
2018-01-30T03:15:03.082Z,10.20
2018-01-30T03:17:31.439Z,10.67
2018-01-30T03:20:00.513Z,10.77
2018-01-30T03:22:28.106Z,9.30
2018-01-30T03:24:55.680Z,10.07
2018-01-30T03:27:23.267Z,9.80
2018-01-30T03:29:50.843Z,9.33
2018-01-30T03:32:18.438Z,8.70
2018-01-30T03:34:46.004Z,9.90
2018-01-30T03:37:14.362Z,9.37
2018-01-30T03:39:41.929Z,8.20
2018-01-30T03:42:24.213Z,7.93
2018-01-30T03:44:51.772Z,10.30
2018-01-30T03:47:19.369Z,10.23
2018-01-30T03:49:47.732Z,7.97
2018-01-30T03:52:15.306Z,8.03
2018-01-30T03:54:43.637Z,9.37
2018-01-30T03:57:11.191Z,9.27
2018-01-30T03:59:39.090Z,8.63
2018-01-30T04:02:06.674Z,8.63
2018-01-30T04:04:34.262Z,8.97
2018-01-30T04:07:01.827Z,9.00
2018-01-30T04:09:29.410Z,8.87
2018-01-30T04:11:56.975Z,9.30
2018-01-30T04:14:24.565Z,9.10
2018-01-30T04:16:52.139Z,8.50
2018-01-30T04:19:19.719Z,7.97
2018-01-30T04:21:47.283Z,7.77
2018-01-30T04:24:14.943Z,8.07
2018-01-30T04:26:42.521Z,8.07
2018-01-30T04:29:10.127Z,7.80
2018-01-30T04:31:37.768Z,7.83
2018-01-30T04:34:05.361Z,6.97
2018-01-30T04:36:32.939Z,7.90
2018-01-30T04:39:00.520Z,7.77
2018-01-30T04:41:28.148Z,7.90
2018-01-30T04:43:55.734Z,7.40
2018-01-30T04:46:23.313Z,7.50
2018-01-30T04:48:51.690Z,8.60
2018-01-30T04:51:20.031Z,7.23
2018-01-30T04:53:47.621Z,7.13
2018-01-30T04:56:15.956Z,7.73
2018-01-30T04:58:43.542Z,8.10
2018-01-30T05:01:11.099Z,6.43
2018-01-30T05:03:38.935Z,6.40
2018-01-30T05:06:06.499Z,6.00
2018-01-30T05:08:34.078Z,6.87
2018-01-30T05:11:02.408Z,7.27
2018-01-30T05:13:29.997Z,6.83
2018-01-30T05:15:57.550Z,7.43
2018-01-30T05:18:25.142Z,7.07
2018-01-30T05:20:53.473Z,6.77
2018-01-30T05:23:21.062Z,6.13
2018-01-30T05:25:48.640Z,6.83
2018-01-30T05:28:16.990Z,6.23
2018-01-30T05:30:44.625Z,6.57
2018-01-30T05:33:12.213Z,7.17
2018-01-30T05:35:39.775Z,7.10
2018-01-30T05:38:08.130Z,7.10
2018-01-30T05:40:35.689Z,6.57
2018-01-30T05:43:03.267Z,6.77
2018-01-30T05:45:30.834Z,6.10
2018-01-30T05:47:59.183Z,6.70
2018-01-30T05:50:26.734Z,5.87
2018-01-30T05:52:54.322Z,6.23
2018-01-30T05:55:22.658Z,7.00
2018-01-30T05:57:50.238Z,5.60
2018-01-30T06:00:17.994Z,7.00
2018-01-30T06:02:45.551Z,6.57
2018-01-30T06:05:13.134Z,6.50
2018-01-30T06:07:41.581Z,5.67
2018-01-30T06:10:09.163Z,6.30
2018-01-30T06:12:37.495Z,5.83
2018-01-30T06:15:05.080Z,5.43
2018-01-30T06:17:32.635Z,5.73
2018-01-30T06:20:00.281Z,5.63
2018-01-30T06:22:27.855Z,5.90
2018-01-30T06:24:56.961Z,5.83
2018-01-30T06:27:24.555Z,6.63
2018-01-30T06:29:52.135Z,5.73
2018-01-30T06:32:19.811Z,5.87
2018-01-30T06:34:47.398Z,5.00
2018-01-30T06:37:14.957Z,5.43
2018-01-30T06:39:42.543Z,5.53
2018-01-30T06:42:10.137Z,4.70
2018-01-30T06:44:37.885Z,5.43
2018-01-30T06:47:05.454Z,6.20
2018-01-30T06:49:33.061Z,5.50
2018-01-30T06:52:00.638Z,5.37
2018-01-30T06:54:28.982Z,5.30
2018-01-30T06:56:56.544Z,5.27
2018-01-30T06:59:24.136Z,5.20
2018-01-30T07:01:51.703Z,5.43
2018-01-30T07:04:19.283Z,5.20
2018-01-30T07:06:46.854Z,6.97
2018-01-30T07:09:14.442Z,5.23
2018-01-30T07:11:42.014Z,5.37
2018-01-30T07:14:09.652Z,4.77
2018-01-30T07:16:37.289Z,5.03
2018-01-30T07:19:04.884Z,5.33
2018-01-30T07:21:32.447Z,4.77
2018-01-30T07:24:00.030Z,5.07
2018-01-30T07:26:27.593Z,4.33
2018-01-30T07:28:55.186Z,5.03
2018-01-30T07:31:22.746Z,3.70
2018-01-30T07:33:50.410Z,4.37
2018-01-30T07:36:19.496Z,4.97
2018-01-30T07:38:47.086Z,5.37
2018-01-30T07:41:14.646Z,4.73
2018-01-30T07:43:42.231Z,5.90
2018-01-30T07:46:09.795Z,4.43
2018-01-30T07:48:37.367Z,4.60
2018-01-30T07:51:04.918Z,4.13
2018-01-30T07:53:32.511Z,4.20
2018-01-30T07:56:00.263Z,4.87
2018-01-30T07:58:27.853Z,5.07
2018-01-30T08:00:56.175Z,4.87
2018-01-30T08:03:23.767Z,3.73
2018-01-30T08:05:51.344Z,4.23
2018-01-30T08:08:19.667Z,4.27
2018-01-30T08:10:47.243Z,3.97
2018-01-30T08:13:14.865Z,4.57
2018-01-30T08:15:42.480Z,4.30
2018-01-30T08:18:10.813Z,4.47
2018-01-30T08:20:38.431Z,3.73
2018-01-30T08:23:06.054Z,4.63
2018-01-30T08:25:33.651Z,3.67
2018-01-30T08:28:01.979Z,4.13
2018-01-30T08:30:29.570Z,4.90
2018-01-30T08:32:57.137Z,4.00
2018-01-30T08:35:25.686Z,3.80
2018-01-30T08:37:53.245Z,4.37
2018-01-30T08:40:20.847Z,4.87
2018-01-30T08:42:49.394Z,3.57
2018-01-30T08:45:16.982Z,3.63
2018-01-30T08:47:44.546Z,3.63
2018-01-30T08:50:12.131Z,2.93
2018-01-30T08:52:40.033Z,3.87
2018-01-30T08:55:07.646Z,3.97
2018-01-30T08:57:35.246Z,4.37
2018-01-30T09:00:02.845Z,4.17
2018-01-30T09:02:31.180Z,3.57
2018-01-30T09:04:58.768Z,2.80
2018-01-30T09:07:26.351Z,3.77
2018-01-30T09:09:53.942Z,3.23
2018-01-30T09:12:21.531Z,3.60
2018-01-30T09:14:49.123Z,2.83
2018-01-30T09:17:17.474Z,3.50
2018-01-30T09:19:45.081Z,3.03
2018-01-30T09:22:12.660Z,3.77
2018-01-30T09:24:40.296Z,3.23
2018-01-30T09:27:07.967Z,2.67
2018-01-30T09:29:35.559Z,2.80
2018-01-30T09:32:03.171Z,3.37
2018-01-30T09:34:30.758Z,3.23
2018-01-30T09:36:58.383Z,3.43
2018-01-30T09:39:25.980Z,2.57
2018-01-30T09:41:53.546Z,3.63
2018-01-30T09:44:21.131Z,2.93
2018-01-30T09:46:48.847Z,3.13
2018-01-30T09:49:16.441Z,3.40
2018-01-30T09:51:44.775Z,2.97
2018-01-30T09:54:12.363Z,3.47
2018-01-30T09:56:40.079Z,2.63
2018-01-30T09:59:07.682Z,2.53
2018-01-30T10:01:35.239Z,4.07
2018-01-30T10:04:02.896Z,3.37
2018-01-30T10:06:30.562Z,3.43
2018-01-30T10:08:58.129Z,2.60
2018-01-30T10:11:25.689Z,2.73
2018-01-30T10:13:53.423Z,3.13
2018-01-30T10:16:20.990Z,2.90
2018-01-30T10:18:48.561Z,2.93
2018-01-30T10:21:16.126Z,2.53
2018-01-30T10:23:43.688Z,2.47
2018-01-30T10:26:11.279Z,2.90
2018-01-30T10:28:39.568Z,2.50
2018-01-30T10:31:07.166Z,3.17
2018-01-30T10:33:34.918Z,4.10
2018-01-30T10:36:02.507Z,2.47
2018-01-30T10:38:30.094Z,2.40
2018-01-30T10:40:57.785Z,2.50
2018-01-30T10:43:25.367Z,2.70
2018-01-30T10:45:52.954Z,2.87
2018-01-30T10:48:21.296Z,2.57
2018-01-30T10:50:48.918Z,2.93
2018-01-30T10:53:16.476Z,2.43
2018-01-30T10:55:46.755Z,2.57
2018-01-30T10:58:14.463Z,3.45
2018-01-30T11:00:42.080Z,2.40
2018-01-30T11:03:10.407Z,2.73
2018-01-30T11:05:38.392Z,2.27
2018-01-30T11:08:06.015Z,5.00
2018-01-30T11:10:33.602Z,5.67
2018-01-30T11:13:01.163Z,3.77
2018-01-30T11:15:28.750Z,6.83
2018-01-30T11:17:56.325Z,4.43
2018-01-30T11:20:24.675Z,4.13
2018-01-30T11:22:53.865Z,3.57
2018-01-30T11:25:21.447Z,4.00
2018-01-30T11:27:49.779Z,2.43
2018-01-30T11:30:17.362Z,3.90
2018-01-30T11:32:45.110Z,2.93
2018-01-30T11:35:12.875Z,3.83
2018-01-30T11:37:40.439Z,3.90
2018-01-30T11:40:08.023Z,5.67
2018-01-30T11:42:36.566Z,4.40
2018-01-30T11:45:04.147Z,2.83
2018-01-30T11:47:31.702Z,2.77
2018-01-30T11:49:59.280Z,3.47
2018-01-30T11:52:27.599Z,2.70
2018-01-30T11:54:55.181Z,2.73
2018-01-30T11:57:22.737Z,1.77
2018-01-30T11:59:50.319Z,3.37
2018-01-30T12:02:18.644Z,2.57
2018-01-30T12:04:46.398Z,3.03
2018-01-30T12:07:13.964Z,3.93
2018-01-30T12:09:41.546Z,3.23
2018-01-30T12:12:09.105Z,3.13
2018-01-30T12:14:36.669Z,3.33
2018-01-30T12:17:04.222Z,2.50
2018-01-30T12:19:31.784Z,2.47
2018-01-30T12:21:59.339Z,4.70
2018-01-30T12:24:26.891Z,2.73
2018-01-30T12:26:54.451Z,1.53
2018-01-30T12:29:22.045Z,3.57
2018-01-30T12:31:49.602Z,3.63
2018-01-30T12:34:17.920Z,2.43
2018-01-30T12:36:45.482Z,2.07
2018-01-30T12:39:13.152Z,1.60
2018-01-30T12:41:40.743Z,2.30
2018-01-30T12:44:08.280Z,1.93
2018-01-30T12:46:35.858Z,2.57
2018-01-30T12:49:03.586Z,2.47
2018-01-30T12:51:31.166Z,3.07
2018-01-30T12:54:00.234Z,1.83
2018-01-30T12:56:27.790Z,2.70
2018-01-30T12:58:55.453Z,4.90
2018-01-30T13:01:23.019Z,3.50
2018-01-30T13:03:50.777Z,2.47
2018-01-30T13:06:18.338Z,3.73
2018-01-30T13:08:45.894Z,4.40
2018-01-30T13:11:13.546Z,2.50
2018-01-30T13:13:41.191Z,3.03
2018-01-30T13:16:08.758Z,2.90
2018-01-30T13:18:36.419Z,2.30
2018-01-30T13:21:03.979Z,3.80
2018-01-30T13:23:31.534Z,4.03
2018-01-30T13:25:59.143Z,1.93
2018-01-30T13:28:26.702Z,2.20
2018-01-30T13:30:55.034Z,2.67
2018-01-30T13:33:22.601Z,3.40
2018-01-30T13:35:50.168Z,2.03
2018-01-30T13:38:18.179Z,3.73
2018-01-30T13:40:46.503Z,2.73
2018-01-30T13:43:14.550Z,4.03
2018-01-30T13:45:42.111Z,2.87
2018-01-30T13:48:10.080Z,2.13
2018-01-30T13:50:37.870Z,2.60
2018-01-30T13:53:05.448Z,2.97
2018-01-30T13:55:33.809Z,2.17
2018-01-30T13:58:01.413Z,2.93
2018-01-30T14:00:29.760Z,2.07
2018-01-30T14:02:57.341Z,2.43
2018-01-30T14:05:25.720Z,2.47
2018-01-30T14:07:54.047Z,2.13
2018-01-30T14:10:21.628Z,1.60
2018-01-30T14:12:49.190Z,2.53
2018-01-30T14:15:16.750Z,2.40
2018-01-30T14:17:45.085Z,2.50
2018-01-30T14:20:12.647Z,1.90
2018-01-30T14:22:41.001Z,3.30
2018-01-30T14:25:08.547Z,2.27
2018-01-30T14:27:36.125Z,2.73
2018-01-30T14:30:03.798Z,2.50
2018-01-30T14:32:31.379Z,3.03
2018-01-30T14:34:59.009Z,2.80
2018-01-30T14:37:26.681Z,1.47
2018-01-30T14:39:54.254Z,2.80
2018-01-30T14:42:22.593Z,3.13
2018-01-30T14:44:50.187Z,2.23
2018-01-30T14:47:19.260Z,2.43
2018-01-30T14:49:47.083Z,2.07
2018-01-30T14:52:15.625Z,2.10
2018-01-30T14:54:43.439Z,3.17
2018-01-30T14:57:13.270Z,2.20
2018-01-30T14:59:41.333Z,2.60
2018-01-30T15:02:10.133Z,2.40
2018-01-30T15:04:38.525Z,2.17
2018-01-30T15:07:06.167Z,1.97
2018-01-30T15:09:33.727Z,3.17
2018-01-30T15:12:01.391Z,2.43
2018-01-30T15:14:28.948Z,2.43
2018-01-30T15:16:56.539Z,2.40
2018-01-30T15:19:24.158Z,2.90
2018-01-30T15:21:51.771Z,2.17
2018-01-30T15:24:19.493Z,1.83
2018-01-30T15:26:47.047Z,2.43
2018-01-30T15:29:14.610Z,2.07
2018-01-30T15:31:42.354Z,3.27
2018-01-30T15:34:09.926Z,2.63
2018-01-30T15:36:37.630Z,1.77
2018-01-30T15:39:05.952Z,2.30
2018-01-30T15:41:33.507Z,2.17
2018-01-30T15:44:01.172Z,1.50
2018-01-30T15:46:28.722Z,2.43
2018-01-30T15:48:56.275Z,3.33
2018-01-30T15:51:23.827Z,2.77
2018-01-30T15:53:51.400Z,2.33
2018-01-30T15:56:18.967Z,2.53
2018-01-30T15:58:46.628Z,1.93
2018-01-30T16:01:14.184Z,2.00
2018-01-30T16:03:41.730Z,2.63
2018-01-30T16:06:09.282Z,2.53
2018-01-30T16:08:36.838Z,2.07
2018-01-30T16:11:04.421Z,2.30
2018-01-30T16:13:31.976Z,2.20
2018-01-30T16:15:59.555Z,2.60
2018-01-30T16:18:27.114Z,2.77
2018-01-30T16:20:54.695Z,1.50
2018-01-30T16:23:23.023Z,1.70
2018-01-30T16:25:50.582Z,2.50
2018-01-30T16:28:18.236Z,1.90
2018-01-30T16:30:45.798Z,2.03
2018-01-30T16:33:13.362Z,1.80
2018-01-30T16:35:40.915Z,2.50
2018-01-30T16:38:08.475Z,1.50
2018-01-30T16:40:36.067Z,1.90
2018-01-30T16:43:03.639Z,2.17
2018-01-30T16:45:31.958Z,3.63
2018-01-30T16:47:59.519Z,2.47
2018-01-30T16:50:27.087Z,2.43
2018-01-30T16:52:54.712Z,2.63
2018-01-30T16:55:22.274Z,1.63
2018-01-30T16:57:49.871Z,2.57
2018-01-30T17:00:17.431Z,2.43
2018-01-30T17:02:45.011Z,3.33
2018-01-30T17:05:13.343Z,3.13
2018-01-30T17:07:40.905Z,2.33
2018-01-30T17:10:08.561Z,2.37
2018-01-30T17:12:36.232Z,1.93
2018-01-30T17:15:03.801Z,1.83
2018-01-30T17:17:31.363Z,2.00
2018-01-30T17:19:58.934Z,1.80
2018-01-30T17:22:26.660Z,2.07
2018-01-30T17:24:54.230Z,2.27
2018-01-30T17:27:21.787Z,1.67
2018-01-30T17:29:49.353Z,2.97
2018-01-30T17:32:16.910Z,1.63
2018-01-30T17:34:44.487Z,1.87
2018-01-30T17:37:12.059Z,2.43
2018-01-30T17:39:40.386Z,2.60
2018-01-30T17:42:07.975Z,1.47
2018-01-30T17:44:35.711Z,1.60
2018-01-30T17:47:03.320Z,2.20
2018-01-30T17:49:31.760Z,2.17
2018-01-30T17:51:59.406Z,1.43
2018-01-30T17:54:26.988Z,2.43
2018-01-30T17:56:54.550Z,1.27
2018-01-30T17:59:22.890Z,1.80
2018-01-30T18:01:50.500Z,1.43
2018-01-30T18:04:18.980Z,2.27
2018-01-30T18:06:47.318Z,2.13
2018-01-30T18:09:16.464Z,2.07
2018-01-30T18:11:45.893Z,1.83
2018-01-30T18:14:13.541Z,2.73
2018-01-30T18:16:42.061Z,2.17
2018-01-30T18:19:10.531Z,3.10
2018-01-30T18:21:38.847Z,2.80
2018-01-30T18:24:07.174Z,3.95
2018-01-30T18:26:34.730Z,2.40
2018-01-30T18:29:02.295Z,3.70
2018-01-30T18:31:29.860Z,2.40
2018-01-30T18:33:58.019Z,1.63
2018-01-30T18:36:25.655Z,1.93
2018-01-30T18:38:53.252Z,1.93
2018-01-30T18:41:20.839Z,2.10
2018-01-30T18:43:48.402Z,2.17
2018-01-30T18:46:16.742Z,2.20
2018-01-30T18:48:44.510Z,1.50
2018-01-30T18:51:12.090Z,2.00
2018-01-30T18:53:39.763Z,1.80
2018-01-30T18:56:07.330Z,1.73
2018-01-30T18:58:34.881Z,1.37
2018-01-30T19:01:03.224Z,1.47
2018-01-30T19:03:30.780Z,2.23
2018-01-30T19:05:58.346Z,3.67
2018-01-30T19:08:25.912Z,1.60
2018-01-30T19:10:53.480Z,1.47
2018-01-30T19:13:21.095Z,1.80
2018-01-30T19:15:48.752Z,2.40
2018-01-30T19:18:16.332Z,1.50
2018-01-30T19:20:43.898Z,1.10
2018-01-30T19:23:11.501Z,2.13
2018-01-30T19:25:40.310Z,1.50
2018-01-30T19:28:07.932Z,1.47
2018-01-30T19:30:35.487Z,1.43
2018-01-30T19:33:03.077Z,1.23
2018-01-30T19:35:30.825Z,1.30
2018-01-30T19:37:58.419Z,1.03
2018-01-30T19:40:25.994Z,1.47
2018-01-30T19:42:53.575Z,1.43
2018-01-30T19:45:21.257Z,1.90
2018-01-30T19:47:48.938Z,1.10
2018-01-30T19:50:16.503Z,1.40
2018-01-30T19:52:44.098Z,1.40
2018-01-30T19:55:11.672Z,1.27
2018-01-30T19:57:39.438Z,1.50
2018-01-30T20:00:07.763Z,1.60
2018-01-30T20:02:35.359Z,1.97
2018-01-30T20:05:03.718Z,1.30
2018-01-30T20:07:31.482Z,1.03
2018-01-30T20:10:00.348Z,1.83
2018-01-30T20:12:27.942Z,1.13
2018-01-30T20:14:55.518Z,1.30
2018-01-30T20:17:29.583Z,1.13
2018-01-30T20:19:57.208Z,1.10
2018-01-30T20:22:24.784Z,1.07
2018-01-30T20:24:52.343Z,1.17
2018-01-30T20:27:19.956Z,1.47
2018-01-30T20:29:48.302Z,1.10
2018-01-30T20:32:17.247Z,1.70
2018-01-30T20:34:45.912Z,1.40
2018-01-30T20:37:19.497Z,1.40
2018-01-30T20:39:47.521Z,2.27
2018-01-30T20:42:15.425Z,1.20
2018-01-30T20:44:44.683Z,1.40
2018-01-30T20:47:12.362Z,1.20
2018-01-30T20:49:40.780Z,1.10
2018-01-30T20:52:09.455Z,1.37
2018-01-30T20:54:39.445Z,0.77
2018-01-30T20:57:10.360Z,1.37
2018-01-30T20:59:39.371Z,1.80
2018-01-30T21:02:07.932Z,1.03
2018-01-30T21:04:35.996Z,1.10
2018-01-30T21:07:03.907Z,1.20
2018-01-30T21:09:33.434Z,1.13
2018-01-30T21:12:01.248Z,1.40
2018-01-30T21:14:29.812Z,0.93
2018-01-30T21:16:57.471Z,1.17
2018-01-30T21:19:25.452Z,1.10
2018-01-30T21:21:54.953Z,0.97
2018-01-30T21:24:22.929Z,1.20
2018-01-30T21:26:50.831Z,1.03
2018-01-30T21:29:19.358Z,2.03
2018-01-30T21:31:48.073Z,1.90
2018-01-30T21:34:15.977Z,3.63
2018-01-30T21:36:44.035Z,2.70
2018-01-30T21:39:12.114Z,1.10
2018-01-30T21:41:40.095Z,1.30
2018-01-30T21:44:07.670Z,1.33
2018-01-30T21:46:35.228Z,1.47
2018-01-30T21:49:02.807Z,1.20
2018-01-30T21:51:30.363Z,1.07
2018-01-30T21:53:57.951Z,1.00
2018-01-30T21:56:25.506Z,1.30
2018-01-30T21:58:53.091Z,1.43
2018-01-30T22:01:20.642Z,1.10
2018-01-30T22:03:48.967Z,1.13
2018-01-30T22:06:16.550Z,1.13
2018-01-30T22:08:44.314Z,1.20
2018-01-30T22:11:12.755Z,0.73
2018-01-30T22:13:40.318Z,0.73
2018-01-30T22:16:07.890Z,1.47
2018-01-30T22:18:35.461Z,1.37
2018-01-30T22:21:03.031Z,1.53
2018-01-30T22:23:30.602Z,0.80
2018-01-30T22:25:58.954Z,1.00
2018-01-30T22:28:26.514Z,1.77
2018-01-30T22:30:54.081Z,0.80
2018-01-30T22:33:21.634Z,0.70
2018-01-30T22:35:49.212Z,1.33
2018-01-30T22:38:16.771Z,1.97
2018-01-30T22:40:45.114Z,0.67
2018-01-30T22:43:12.667Z,0.90
2018-01-30T22:45:40.277Z,1.30
